< < Back
Terminal Aerodrome Forecast


Current Version              Previous Versions:   1  2  3  4  5  6  7  8  9  

Terminal Aerodrome Forecast

849
FTUS42 KGSP 291700
TAFHKY
TAF
KHKY 291728Z 2918/3018 32005KT P6SM SCT060=

Latest METAR

513
SAUS70 KWBC 292000 RRA
MTRHKY
METAR KHKY 291953Z 01003KT 10SM BKN065 BKN080 26/11 A2996 RMK AO2 SLP124
T02610111


USA.gov is the U.S. government's official web portal to all federal, state and local government web resources and services.